createdAt,value
2018-09-08T00:02:03.833Z,24.43
2018-09-08T00:04:32.485Z,23.47
2018-09-08T00:07:06.517Z,22.67
2018-09-08T00:09:35.112Z,22.97
2018-09-08T00:12:03.655Z,26.20
2018-09-08T00:14:32.339Z,23.57
2018-09-08T00:17:06.157Z,24.00
2018-09-08T00:19:40.157Z,22.27
2018-09-08T00:22:13.859Z,22.67
2018-09-08T00:24:47.768Z,21.97
2018-09-08T00:27:20.690Z,26.70
2018-09-08T00:29:50.991Z,20.93
2018-09-08T00:32:20.757Z,21.57
2018-09-08T00:34:49.261Z,20.90
2018-09-08T00:37:18.100Z,20.87
2018-09-08T00:39:51.909Z,22.67
2018-09-08T00:42:20.894Z,23.30
2018-09-08T00:44:49.406Z,20.57
2018-09-08T00:47:18.235Z,21.23
2018-09-08T00:49:46.748Z,25.60
2018-09-08T00:52:15.553Z,21.40
2018-09-08T00:54:44.057Z,24.77
2018-09-08T00:57:12.545Z,22.93
2018-09-08T00:59:41.121Z,26.93
2018-09-08T01:02:09.971Z,26.30
2018-09-08T01:04:38.924Z,25.70
2018-09-08T01:07:11.694Z,25.10
2018-09-08T01:09:40.220Z,27.17
2018-09-08T01:12:09.733Z,25.30
2018-09-08T01:14:39.175Z,25.43
2018-09-08T01:17:07.670Z,28.97
2018-09-08T01:19:36.183Z,25.03
2018-09-08T01:22:04.674Z,24.40
2018-09-08T01:24:33.202Z,28.37
2018-09-08T01:27:01.756Z,26.60
2018-09-08T01:29:30.291Z,25.03
2018-09-08T01:31:59.494Z,29.57
2018-09-08T01:34:28.011Z,25.87
2018-09-08T01:36:56.796Z,24.50
2018-09-08T01:39:25.607Z,28.93
2018-09-08T01:41:54.138Z,26.03
2018-09-08T01:44:23.688Z,24.10
2018-09-08T01:46:52.378Z,25.97
2018-09-08T01:49:21.171Z,24.50
2018-09-08T01:51:49.876Z,22.77
2018-09-08T01:54:18.473Z,23.13
2018-09-08T01:56:47.285Z,26.23
2018-09-08T01:59:16.224Z,22.53
2018-09-08T02:01:44.825Z,22.90
2018-09-08T02:04:13.480Z,26.00
2018-09-08T02:06:42.492Z,26.73
2018-09-08T02:09:11.347Z,27.17
2018-09-08T02:11:39.896Z,26.27
2018-09-08T02:14:08.823Z,24.13
2018-09-08T02:16:37.611Z,24.07
2018-09-08T02:19:06.258Z,28.87
2018-09-08T02:21:34.967Z,27.63
2018-09-08T02:24:03.517Z,29.60
2018-09-08T02:26:32.173Z,24.60
2018-09-08T02:29:00.847Z,28.77
2018-09-08T02:31:29.749Z,30.67
2018-09-08T02:33:58.283Z,31.67
2018-09-08T02:36:26.868Z,33.70
2018-09-08T02:38:56.032Z,27.80
2018-09-08T02:41:24.897Z,30.23
2018-09-08T02:43:53.668Z,31.53
2018-09-08T02:46:22.418Z,30.87
2018-09-08T02:48:51.210Z,30.07
2018-09-08T02:51:18.619Z,30.07
2018-09-08T02:53:46.004Z,25.47
2018-09-08T02:56:13.483Z,30.50
2018-09-08T02:58:40.930Z,29.20
2018-09-08T03:01:08.319Z,28.70
2018-09-08T03:03:35.877Z,28.53
2018-09-08T03:06:03.365Z,30.23
2018-09-08T03:08:30.901Z,30.50
2018-09-08T03:10:58.559Z,32.43
2018-09-08T03:13:26.074Z,29.30
2018-09-08T03:15:53.483Z,34.17
2018-09-08T03:18:21.145Z,33.90
2018-09-08T03:20:48.515Z,30.07
2018-09-08T03:23:15.948Z,29.20
2018-09-08T03:25:43.324Z,34.30
2018-09-08T03:28:10.789Z,30.43
2018-09-08T03:30:38.163Z,32.37
2018-09-08T03:33:05.671Z,34.07
2018-09-08T03:35:34.164Z,33.57
2018-09-08T03:38:01.812Z,30.50
2018-09-08T03:40:29.228Z,28.83
2018-09-08T03:42:56.605Z,31.23
2018-09-08T03:45:23.994Z,30.57
2018-09-08T03:47:51.437Z,34.83
2018-09-08T03:50:18.821Z,35.93
2018-09-08T03:52:46.348Z,33.67
2018-09-08T03:55:13.913Z,36.63
2018-09-08T03:57:41.346Z,36.87
2018-09-08T04:00:08.808Z,40.60
2018-09-08T04:02:37.761Z,34.83
2018-09-08T04:05:06.611Z,35.70
2018-09-08T04:07:35.215Z,38.10
2018-09-08T04:10:04.280Z,37.50
2018-09-08T04:12:32.848Z,39.23
2018-09-08T04:15:01.801Z,42.93
2018-09-08T04:17:30.425Z,39.30
2018-09-08T04:19:59.041Z,43.50
2018-09-08T04:22:33.083Z,37.50
2018-09-08T04:25:02.314Z,39.17
2018-09-08T04:27:30.910Z,41.47
2018-09-08T04:29:59.704Z,41.90
2018-09-08T04:32:28.597Z,38.97
2018-09-08T04:34:57.779Z,42.30
2018-09-08T04:37:26.761Z,36.27
2018-09-08T04:39:55.887Z,36.23
2018-09-08T04:42:24.766Z,39.37
2018-09-08T04:44:54.011Z,38.80
2018-09-08T04:47:22.654Z,41.47
2018-09-08T04:49:51.370Z,39.20
2018-09-08T04:52:20.332Z,41.23
2018-09-08T04:54:49.325Z,45.10
2018-09-08T04:57:18.113Z,42.70
2018-09-08T04:59:46.799Z,39.80
2018-09-08T05:02:15.426Z,42.87
2018-09-08T05:04:44.278Z,45.63
2018-09-08T05:07:13.096Z,42.00
2018-09-08T05:09:41.751Z,43.03
2018-09-08T05:12:10.331Z,45.67
2018-09-08T05:14:38.988Z,43.80
2018-09-08T05:17:07.823Z,43.10
2018-09-08T05:19:36.493Z,41.77
2018-09-08T05:22:05.541Z,45.27
2018-09-08T05:24:34.484Z,44.53
2018-09-08T05:27:03.339Z,48.10
2018-09-08T05:29:32.014Z,46.13
2018-09-08T05:32:00.694Z,42.43
2018-09-08T05:34:29.474Z,41.00
2018-09-08T05:36:58.083Z,41.83
2018-09-08T05:39:26.670Z,42.70
2018-09-08T05:41:55.277Z,39.93
2018-09-08T05:44:23.783Z,41.37
2018-09-08T05:46:52.489Z,43.90
2018-09-08T05:49:21.042Z,43.23
2018-09-08T05:51:49.615Z,44.33
2018-09-08T05:54:18.316Z,46.60
2018-09-08T05:56:46.857Z,45.40
2018-09-08T05:59:15.412Z,46.30
2018-09-08T06:01:43.949Z,44.80
2018-09-08T06:04:12.660Z,42.23
2018-09-08T06:06:41.238Z,50.50
2018-09-08T06:09:10.661Z,44.43
2018-09-08T06:11:39.841Z,43.93
2018-09-08T06:14:08.432Z,50.37
2018-09-08T06:16:37.238Z,45.17
2018-09-08T06:19:06.368Z,48.33
2018-09-08T06:21:35.075Z,48.33
2018-09-08T06:24:03.826Z,46.57
2018-09-08T06:26:32.399Z,48.63
2018-09-08T06:29:01.184Z,49.43
2018-09-08T06:31:30.016Z,46.10
2018-09-08T06:33:58.699Z,45.97
2018-09-08T06:36:27.235Z,46.80
2018-09-08T06:38:55.895Z,43.70
2018-09-08T06:41:24.490Z,43.57
2018-09-08T06:43:53.155Z,43.80
2018-09-08T06:46:21.957Z,46.27
2018-09-08T06:48:50.585Z,43.97
2018-09-08T06:51:19.500Z,41.37
2018-09-08T06:53:48.707Z,41.87
2018-09-08T06:56:17.395Z,43.30
2018-09-08T06:58:46.125Z,41.27
2018-09-08T07:01:15.181Z,42.13
2018-09-08T07:03:44.211Z,39.77
2018-09-08T07:06:12.958Z,38.13
2018-09-08T07:08:41.531Z,40.17
2018-09-08T07:11:10.319Z,37.40
2018-09-08T07:13:38.851Z,37.57
2018-09-08T07:16:07.838Z,37.60
2018-09-08T07:18:36.533Z,41.63
2018-09-08T07:21:05.191Z,39.27
2018-09-08T07:23:34.054Z,41.60
2018-09-08T07:26:03.105Z,39.33
2018-09-08T07:28:32.355Z,39.27
2018-09-08T07:31:01.194Z,36.83
2018-09-08T07:33:30.432Z,34.37
2018-09-08T07:35:59.092Z,37.43
2018-09-08T07:38:27.871Z,35.07
2018-09-08T07:40:56.401Z,35.00
2018-09-08T07:43:25.284Z,33.13
2018-09-08T07:45:54.146Z,32.67
2018-09-08T07:48:23.110Z,33.67
2018-09-08T07:50:51.851Z,34.07
2018-09-08T07:53:20.864Z,34.90
2018-09-08T07:55:49.904Z,33.37
2018-09-08T07:58:18.660Z,33.23
2018-09-08T08:00:47.441Z,35.20
2018-09-08T08:03:16.380Z,34.47
2018-09-08T08:05:45.304Z,34.70
2018-09-08T08:08:13.847Z,34.90
2018-09-08T08:10:42.553Z,31.87
2018-09-08T08:13:11.438Z,31.23
2018-09-08T08:15:40.162Z,33.73
2018-09-08T08:18:08.706Z,34.07
2018-09-08T08:20:37.350Z,33.37
2018-09-08T08:23:06.397Z,34.10
2018-09-08T08:25:35.052Z,32.40
2018-09-08T08:28:03.861Z,30.63
2018-09-08T08:30:32.851Z,36.67
2018-09-08T08:33:01.615Z,33.53
2018-09-08T08:35:30.444Z,35.53
2018-09-08T08:37:59.017Z,31.87
2018-09-08T08:40:27.624Z,33.57
2018-09-08T08:42:56.270Z,36.23
2018-09-08T08:45:24.964Z,33.63
2018-09-08T08:47:53.519Z,32.60
2018-09-08T08:51:34.391Z,36.07
2018-09-08T08:54:17.703Z,36.93
2018-09-08T08:56:46.658Z,36.10
2018-09-08T08:59:15.246Z,34.97
2018-09-08T09:01:44.352Z,35.27
2018-09-08T09:04:13.748Z,36.43
2018-09-08T09:06:42.457Z,36.40
2018-09-08T09:09:14.067Z,34.90
2018-09-08T09:11:43.837Z,38.87
2018-09-08T09:14:13.331Z,42.60
2018-09-08T09:16:42.374Z,35.13
2018-09-08T09:19:34.718Z,34.80
2018-09-08T09:22:15.882Z,34.37
2018-09-08T09:25:06.822Z,33.63
2018-09-08T09:27:41.247Z,32.40
2018-09-08T09:30:10.608Z,32.73
2018-09-08T09:32:39.430Z,32.77
2018-09-08T09:35:10.614Z,30.60
2018-09-08T09:37:39.384Z,34.20
2018-09-08T09:40:09.149Z,28.23
2018-09-08T09:42:38.103Z,25.90
2018-09-08T09:45:07.698Z,27.07
2018-09-08T09:47:36.369Z,27.03
2018-09-08T09:50:05.811Z,24.87
2018-09-08T09:52:34.467Z,25.73
2018-09-08T09:55:03.238Z,24.93
2018-09-08T09:57:31.798Z,24.33
2018-09-08T10:00:00.346Z,23.90
2018-09-08T10:02:39.247Z,22.60
2018-09-08T10:05:10.835Z,23.47
2018-09-08T10:07:39.526Z,25.07
2018-09-08T10:10:09.835Z,23.93
2018-09-08T10:12:39.014Z,22.30
2018-09-08T10:15:08.564Z,21.70
2018-09-08T10:17:37.962Z,23.67
2018-09-08T10:20:08.927Z,24.17
2018-09-08T10:22:37.856Z,23.30
2018-09-08T10:25:08.288Z,26.13
2018-09-08T10:27:37.090Z,23.00
2018-09-08T10:30:06.351Z,25.37
2018-09-08T10:32:34.962Z,24.27
2018-09-08T10:35:03.840Z,24.30
2018-09-08T10:37:32.599Z,26.57
2018-09-08T10:40:01.385Z,25.23
2018-09-08T10:42:30.618Z,27.20
2018-09-08T10:44:59.473Z,26.60
2018-09-08T10:47:28.429Z,28.03
2018-09-08T10:49:57.496Z,25.90
2018-09-08T10:52:35.713Z,27.30
2018-09-08T10:55:04.413Z,26.30
2018-09-08T10:57:33.254Z,25.90
2018-09-08T11:00:02.888Z,28.53
2018-09-08T11:02:32.027Z,31.43
2018-09-08T11:05:01.321Z,29.20
2018-09-08T11:07:30.958Z,57.93
2018-09-08T11:09:59.714Z,39.13
2018-09-08T11:12:28.567Z,39.20
2018-09-08T11:14:57.478Z,44.07
2018-09-08T11:17:26.091Z,38.87
2018-09-08T11:19:54.870Z,31.10
2018-09-08T11:22:23.808Z,29.80
2018-09-08T11:24:52.406Z,32.57
2018-09-08T11:27:21.157Z,29.07
2018-09-08T11:29:50.049Z,26.13
2018-09-08T11:32:18.718Z,27.50
2018-09-08T11:34:47.535Z,26.57
2018-09-08T11:37:16.455Z,26.27
2018-09-08T11:39:46.050Z,27.20
2018-09-08T11:42:14.875Z,26.40
2018-09-08T11:44:43.827Z,28.47
2018-09-08T11:47:12.679Z,28.77
2018-09-08T11:49:41.766Z,27.83
2018-09-08T11:52:10.476Z,28.77
2018-09-08T11:54:40.043Z,26.80
2018-09-08T11:57:08.966Z,27.40
2018-09-08T11:59:37.766Z,26.93
2018-09-08T12:02:06.896Z,27.17
2018-09-08T12:04:35.642Z,25.67
2018-09-08T12:07:04.554Z,27.13
2018-09-08T12:09:33.319Z,25.57
2018-09-08T12:12:02.085Z,24.57
2018-09-08T12:14:30.898Z,23.73
2018-09-08T12:16:59.579Z,23.17
2018-09-08T12:19:28.242Z,22.23
2018-09-08T12:21:56.796Z,20.40
2018-09-08T12:24:26.568Z,20.83
2018-09-08T12:26:56.375Z,20.53
2018-09-08T12:29:24.911Z,19.63
2018-09-08T12:31:53.650Z,17.83
2018-09-08T12:34:22.522Z,19.07
2018-09-08T12:36:51.078Z,18.20
2018-09-08T12:39:19.923Z,19.37
2018-09-08T12:41:48.567Z,19.47
2018-09-08T12:44:17.100Z,19.40
2018-09-08T12:46:45.864Z,18.27
2018-09-08T12:49:14.383Z,18.90
2018-09-08T12:51:43.242Z,18.60
2018-09-08T12:54:12.130Z,16.07
2018-09-08T12:56:40.725Z,15.60
2018-09-08T12:59:09.270Z,16.57
2018-09-08T13:01:37.975Z,18.33
2018-09-08T13:04:06.867Z,17.83
2018-09-08T13:06:35.466Z,18.23
2018-09-08T13:09:04.731Z,17.17
2018-09-08T13:11:33.540Z,16.40
2018-09-08T13:14:02.186Z,16.20
2018-09-08T13:16:31.914Z,15.90
2018-09-08T13:19:00.483Z,17.67
2018-09-08T13:21:29.060Z,17.43
2018-09-08T13:23:57.906Z,16.70
2018-09-08T13:26:26.824Z,16.77
2018-09-08T13:28:55.539Z,16.57
2018-09-08T13:31:24.088Z,16.90
2018-09-08T13:33:52.989Z,17.80
2018-09-08T13:36:21.739Z,17.73
2018-09-08T13:38:50.358Z,19.73
2018-09-08T13:41:18.870Z,18.63
2018-09-08T13:43:47.742Z,28.03
2018-09-08T13:46:16.474Z,28.73
2018-09-08T13:48:45.301Z,20.10
2018-09-08T13:51:14.150Z,16.80
2018-09-08T13:53:42.935Z,17.37
2018-09-08T13:56:11.672Z,17.23
2018-09-08T13:58:40.577Z,18.13
2018-09-08T14:01:09.164Z,18.83
2018-09-08T14:03:37.889Z,19.17
2018-09-08T14:06:06.830Z,19.23
2018-09-08T14:08:35.438Z,19.20
2018-09-08T14:11:04.622Z,20.33
2018-09-08T14:13:33.444Z,20.17
2018-09-08T14:16:02.303Z,20.30
2018-09-08T14:18:31.123Z,20.20
2018-09-08T14:21:00.043Z,24.10
2018-09-08T14:23:28.671Z,26.10
2018-09-08T14:25:58.122Z,27.20
2018-09-08T14:28:26.757Z,27.90
2018-09-08T14:30:55.351Z,28.83
2018-09-08T14:33:24.025Z,28.20
2018-09-08T14:35:52.843Z,29.10
2018-09-08T14:38:21.798Z,29.07
2018-09-08T14:40:51.200Z,30.10
2018-09-08T14:43:20.077Z,29.63
2018-09-08T14:45:50.457Z,29.00
2018-09-08T14:48:19.379Z,33.83
2018-09-08T14:50:48.262Z,44.87
2018-09-08T14:53:17.249Z,32.53
2018-09-08T14:55:45.876Z,31.23
2018-09-08T14:58:14.675Z,23.53
2018-09-08T15:00:43.493Z,19.53
2018-09-08T15:03:13.293Z,15.97
2018-09-08T15:05:42.248Z,13.83
2018-09-08T15:08:10.803Z,14.00
2018-09-08T15:10:39.611Z,13.50
2018-09-08T15:13:08.665Z,13.97
2018-09-08T15:15:37.322Z,13.30
2018-09-08T15:18:06.240Z,14.50
2018-09-08T15:20:34.793Z,14.40
2018-09-08T15:23:03.392Z,15.37
2018-09-08T15:25:32.149Z,16.20
2018-09-08T15:28:01.118Z,16.27
2018-09-08T15:30:30.103Z,16.20
2018-09-08T15:32:59.029Z,17.93
2018-09-08T15:35:27.562Z,17.83
2018-09-08T15:37:57.080Z,17.00
2018-09-08T15:40:26.241Z,14.97
2018-09-08T15:42:55.047Z,15.30
2018-09-08T15:45:23.659Z,16.83
2018-09-08T15:47:52.386Z,16.63
2018-09-08T15:50:21.335Z,16.37
2018-09-08T15:52:50.009Z,16.77
2018-09-08T15:55:18.718Z,17.97
2018-09-08T15:57:47.915Z,18.00
2018-09-08T16:00:16.476Z,18.40
2018-09-08T16:02:44.993Z,17.87
2018-09-08T16:05:13.718Z,19.83
2018-09-08T16:07:43.225Z,19.83
2018-09-08T16:10:12.318Z,19.67
2018-09-08T16:12:43.464Z,20.50
2018-09-08T16:15:12.924Z,19.70
2018-09-08T16:17:42.104Z,19.17
2018-09-08T16:23:39.688Z,19.50
2018-09-08T16:26:10.255Z,19.37
2018-09-08T16:28:44.474Z,20.40
2018-09-08T16:31:15.582Z,20.23
2018-09-08T16:33:51.187Z,20.67
2018-09-08T16:36:19.884Z,23.37
2018-09-08T16:38:48.592Z,24.33
2018-09-08T16:41:19.120Z,23.70
2018-09-08T16:43:48.274Z,24.83
2018-09-08T16:46:16.931Z,25.33
2018-09-08T16:48:45.526Z,25.97
2018-09-08T16:51:14.337Z,27.87
2018-09-08T16:53:42.919Z,27.13
2018-09-08T16:56:11.566Z,28.57
2018-09-08T16:58:41.407Z,28.07
2018-09-08T17:01:13.145Z,29.50
2018-09-08T17:03:43.386Z,29.93
2018-09-08T17:06:12.501Z,28.97
2018-09-08T17:08:41.149Z,29.00
2018-09-08T17:11:09.852Z,33.30
2018-09-08T17:13:38.619Z,29.07
2018-09-08T17:16:07.473Z,30.57
2018-09-08T17:18:36.320Z,31.30
2018-09-08T17:21:05.331Z,30.70
2018-09-08T17:23:33.988Z,32.00
2018-09-08T17:26:02.573Z,34.73
2018-09-08T17:28:31.233Z,32.10
2018-09-08T17:30:59.787Z,35.50
2018-09-08T17:33:28.584Z,33.23
2018-09-08T17:35:57.263Z,36.70
2018-09-08T17:38:25.752Z,35.20
2018-09-08T17:40:54.371Z,34.37
2018-09-08T17:43:22.906Z,33.27
2018-09-08T17:45:51.561Z,35.60
2018-09-08T17:48:20.448Z,34.57
2018-09-08T17:50:49.350Z,34.87
2018-09-08T17:53:17.900Z,42.33
2018-09-08T17:55:46.643Z,47.60
2018-09-08T17:58:15.227Z,50.30
2018-09-08T18:00:43.830Z,57.53
2018-09-08T18:03:12.531Z,64.23
2018-09-08T18:05:41.746Z,77.23
2018-09-08T18:08:10.346Z,84.97
2018-09-08T18:10:38.938Z,89.67
2018-09-08T18:13:07.680Z,90.17
2018-09-08T18:15:36.300Z,81.97
2018-09-08T18:18:04.906Z,79.93
2018-09-08T18:20:34.055Z,74.27
2018-09-08T18:23:02.992Z,63.97
2018-09-08T18:25:31.809Z,55.00
2018-09-08T18:28:00.383Z,59.13
2018-09-08T18:30:29.126Z,61.27
2018-09-08T18:32:58.026Z,61.30
2018-09-08T18:35:26.589Z,59.80
2018-09-08T18:37:55.660Z,59.00
2018-09-08T18:40:24.349Z,53.67
2018-09-08T18:42:53.173Z,52.37
2018-09-08T18:45:22.472Z,52.33
2018-09-08T18:47:51.171Z,53.17
2018-09-08T18:50:21.376Z,52.67
2018-09-08T18:52:50.267Z,53.23
2018-09-08T18:55:18.908Z,50.27
2018-09-08T18:57:47.828Z,56.47
2018-09-08T19:00:16.571Z,53.83
2018-09-08T19:02:46.644Z,51.60
2018-09-08T19:05:15.388Z,50.20
2018-09-08T19:07:43.987Z,49.60
2018-09-08T19:10:13.118Z,54.53
2018-09-08T19:12:41.903Z,51.47
2018-09-08T19:15:38.785Z,53.27
2018-09-08T19:18:08.004Z,56.33
2018-09-08T19:20:37.475Z,57.43
2018-09-08T19:23:06.749Z,57.87
2018-09-08T19:25:36.074Z,64.07
2018-09-08T19:28:05.798Z,71.03
2018-09-08T19:30:34.695Z,68.77
2018-09-08T19:33:03.470Z,78.40
2018-09-08T19:35:39.521Z,63.40
2018-09-08T19:38:08.415Z,66.63
2018-09-08T19:40:42.484Z,59.87
2018-09-08T19:43:11.037Z,62.13
2018-09-08T19:45:39.789Z,62.10
2018-09-08T19:48:10.312Z,151.80
2018-09-08T19:50:39.004Z,154.30
2018-09-08T19:53:12.899Z,89.53
2018-09-08T19:55:41.755Z,92.43
2018-09-08T19:58:15.610Z,96.80
2018-09-08T20:00:45.074Z,98.83
2018-09-08T20:03:13.931Z,86.60
2018-09-08T20:05:42.777Z,86.83
2018-09-08T20:08:11.590Z,63.40
2018-09-08T20:10:40.558Z,75.57
2018-09-08T20:13:09.238Z,71.47
2018-09-08T20:15:37.804Z,72.97
2018-09-08T20:18:06.451Z,88.83
2018-09-08T20:20:35.116Z,73.60
2018-09-08T20:23:03.698Z,64.60
2018-09-08T20:25:32.466Z,130.17
2018-09-08T20:28:01.050Z,91.43
2018-09-08T20:30:29.757Z,79.77
2018-09-08T20:32:58.356Z,80.53
2018-09-08T20:35:27.122Z,71.43
2018-09-08T20:37:55.966Z,68.10
2018-09-08T20:40:24.543Z,131.93
2018-09-08T20:42:53.468Z,62.93
2018-09-08T20:45:22.023Z,110.83
2018-09-08T20:47:50.762Z,113.57
2018-09-08T20:50:19.471Z,122.17
2018-09-08T20:52:48.291Z,65.77
2018-09-08T20:55:17.123Z,143.60
2018-09-08T20:57:45.834Z,48.03
2018-09-08T21:00:14.387Z,52.03
2018-09-08T21:02:42.973Z,61.63
2018-09-08T21:05:11.714Z,65.67
2018-09-08T21:07:40.854Z,69.33
2018-09-08T21:10:09.627Z,58.53
2018-09-08T21:16:00.863Z,75.90
2018-09-08T21:18:29.658Z,66.27
2018-09-08T21:20:58.254Z,115.53
2018-09-08T21:23:27.313Z,86.63
2018-09-08T21:25:56.422Z,51.67
2018-09-08T21:28:24.924Z,90.30
2018-09-08T21:30:53.542Z,47.43
2018-09-08T21:33:22.239Z,62.73
2018-09-08T21:35:51.915Z,56.17
2018-09-08T21:38:20.781Z,130.17
2018-09-08T21:40:49.266Z,89.00
2018-09-08T21:43:17.862Z,41.50
2018-09-08T21:45:46.392Z,51.33
2018-09-08T21:48:14.901Z,50.30
2018-09-08T21:50:43.580Z,45.23
2018-09-08T21:53:12.375Z,41.60
2018-09-08T21:55:41.007Z,47.53
2018-09-08T21:58:09.558Z,46.20
2018-09-08T22:00:38.366Z,49.97
2018-09-08T22:03:06.952Z,51.37
2018-09-08T22:05:35.646Z,56.80
2018-09-08T22:08:04.491Z,51.07
2018-09-08T22:10:33.702Z,47.87
2018-09-08T22:13:02.481Z,49.50
2018-09-08T22:15:31.158Z,61.63
2018-09-08T22:17:59.923Z,60.20
2018-09-08T22:20:28.550Z,91.20
2018-09-08T22:22:57.057Z,60.20
2018-09-08T22:25:25.686Z,69.57
2018-09-08T22:27:54.474Z,133.07
2018-09-08T22:30:23.282Z,79.53
2018-09-08T22:32:52.270Z,69.67
2018-09-08T22:35:20.764Z,45.93
2018-09-08T22:37:49.403Z,52.50
2018-09-08T22:40:17.998Z,50.60
2018-09-08T22:42:46.559Z,49.37
2018-09-08T22:45:15.694Z,49.33
2018-09-08T22:47:44.402Z,47.63
2018-09-08T22:50:12.967Z,44.27
2018-09-08T22:52:41.602Z,49.17
2018-09-08T22:55:10.572Z,46.77
2018-09-08T22:57:41.045Z,43.87
2018-09-08T23:00:09.860Z,44.67
2018-09-08T23:02:38.730Z,44.87
2018-09-08T23:05:07.471Z,47.80
2018-09-08T23:07:35.994Z,44.97
2018-09-08T23:10:04.801Z,50.77
2018-09-08T23:12:33.697Z,49.43
2018-09-08T23:15:02.079Z,50.60
2018-09-08T23:17:30.563Z,45.03
2018-09-08T23:19:59.148Z,45.10
2018-09-08T23:22:27.924Z,46.93
2018-09-08T23:24:56.455Z,45.47
2018-09-08T23:27:24.973Z,45.27
2018-09-08T23:29:53.674Z,51.63
2018-09-08T23:32:22.157Z,47.33
2018-09-08T23:34:50.659Z,44.37
2018-09-08T23:37:19.632Z,46.00
2018-09-08T23:39:48.139Z,47.03
2018-09-08T23:42:16.678Z,45.07
2018-09-08T23:44:45.128Z,45.83
2018-09-08T23:47:13.681Z,48.37
2018-09-08T23:49:42.294Z,49.00
2018-09-08T23:52:10.891Z,47.47
2018-09-08T23:54:39.410Z,43.87
2018-09-08T23:57:07.880Z,45.97
2018-09-08T23:59:36.369Z,47.40
